createdAt,value
2022-09-24T00:02:11.626Z,89.27
2022-09-24T00:04:39.468Z,89.38
2022-09-24T00:07:07.018Z,88.88
2022-09-24T00:09:34.739Z,88.65
2022-09-24T00:12:02.825Z,87.98
2022-09-24T00:14:30.480Z,87.50
2022-09-24T00:16:59.438Z,87.76
2022-09-24T00:19:27.197Z,87.68
2022-09-24T00:21:55.043Z,87.09
2022-09-24T00:24:40.460Z,86.80
2022-09-24T00:27:08.063Z,88.09
2022-09-24T00:29:36.256Z,88.61
2022-09-24T00:32:06.514Z,89.69
2022-09-24T00:34:34.128Z,89.73
2022-09-24T00:37:01.728Z,89.97
2022-09-24T00:39:29.324Z,89.52
2022-09-24T00:41:56.872Z,88.91
2022-09-24T00:44:55.323Z,88.42
2022-09-24T00:47:33.547Z,88.38
2022-09-24T00:50:17.194Z,88.69
2022-09-24T00:52:48.120Z,89.54
2022-09-24T00:55:16.543Z,89.82
2022-09-24T00:57:44.901Z,89.73
2022-09-24T01:00:13.718Z,89.32
2022-09-24T01:02:44.279Z,89.90
2022-09-24T01:05:11.738Z,89.69
2022-09-24T01:07:39.173Z,90.42
2022-09-24T01:10:07.401Z,90.13
2022-09-24T01:12:41.472Z,89.83
2022-09-24T01:15:16.984Z,89.42
2022-09-24T01:17:49.458Z,89.47
2022-09-24T01:20:35.626Z,89.90
2022-09-24T01:23:23.670Z,89.68
2022-09-24T01:26:01.544Z,90.80
2022-09-24T01:28:36.648Z,90.60
2022-09-24T01:31:10.162Z,90.96
2022-09-24T01:33:37.921Z,90.06
2022-09-24T01:36:08.294Z,89.70
2022-09-24T01:38:40.246Z,90.25
2022-09-24T01:41:08.702Z,90.60
2022-09-24T01:43:36.508Z,90.59
2022-09-24T01:46:07.326Z,89.69
2022-09-24T01:48:37.177Z,89.97
2022-09-24T01:51:10.067Z,89.19
2022-09-24T01:53:42.754Z,89.47
2022-09-24T01:56:14.164Z,90.08
2022-09-24T01:58:44.354Z,91.17
2022-09-24T02:01:15.324Z,91.01
2022-09-24T02:03:47.621Z,90.94
2022-09-24T02:06:17.861Z,91.30
2022-09-24T02:08:47.530Z,90.64
2022-09-24T02:11:17.630Z,90.12
2022-09-24T02:13:49.122Z,90.09
2022-09-24T02:16:20.857Z,90.85
2022-09-24T02:18:50.653Z,90.51
2022-09-24T02:21:20.191Z,90.21
2022-09-24T02:23:51.954Z,89.11
2022-09-24T02:26:19.687Z,89.24
2022-09-24T02:28:47.341Z,89.12
2022-09-24T02:31:19.306Z,89.78
2022-09-24T02:34:07.583Z,89.95
2022-09-24T02:36:35.655Z,90.08
2022-09-24T02:39:03.271Z,89.92
2022-09-24T02:41:31.207Z,90.00
2022-09-24T02:43:59.204Z,90.91
2022-09-24T02:46:28.242Z,90.65
2022-09-24T02:48:55.728Z,90.56
2022-09-24T02:51:23.242Z,90.27
2022-09-24T02:53:50.702Z,90.28
2022-09-24T02:56:18.289Z,90.08
2022-09-24T02:58:45.926Z,89.59
2022-09-24T03:01:13.585Z,89.80
2022-09-24T03:03:42.433Z,89.34
2022-09-24T03:06:13.530Z,90.33
2022-09-24T03:08:41.498Z,89.73
2022-09-24T03:11:09.077Z,90.23
2022-09-24T03:13:36.765Z,90.40
2022-09-24T03:16:04.554Z,90.43
2022-09-24T03:18:32.168Z,90.22
2022-09-24T03:21:02.306Z,90.40
2022-09-24T03:23:29.765Z,89.87
2022-09-24T03:25:58.895Z,90.13
2022-09-24T03:28:26.810Z,90.06
2022-09-24T03:31:02.281Z,90.36
2022-09-24T03:33:31.337Z,90.48
2022-09-24T03:36:01.616Z,89.32
2022-09-24T03:38:30.330Z,87.59
2022-09-24T03:40:58.068Z,88.45
2022-09-24T03:43:26.288Z,88.27
2022-09-24T03:45:54.112Z,88.23
2022-09-24T03:48:22.988Z,88.31
2022-09-24T03:50:51.403Z,88.22
2022-09-24T03:53:20.577Z,88.23
2022-09-24T03:55:50.405Z,89.02
2022-09-24T03:58:18.302Z,90.06
2022-09-24T04:00:45.949Z,90.51
2022-09-24T04:03:13.739Z,89.94
2022-09-24T04:05:41.371Z,89.70
2022-09-24T04:08:09.060Z,90.46
2022-09-24T04:10:37.880Z,91.09
2022-09-24T04:13:05.608Z,91.22
2022-09-24T04:15:33.514Z,90.00
2022-09-24T04:18:01.018Z,89.60
2022-09-24T04:20:30.192Z,90.41
2022-09-24T04:23:00.146Z,90.79
2022-09-24T04:25:30.497Z,90.49
2022-09-24T04:28:00.588Z,90.38
2022-09-24T04:30:29.031Z,91.40
2022-09-24T04:33:00.177Z,91.93
2022-09-24T04:35:29.971Z,91.86
2022-09-24T04:37:58.864Z,91.88
2022-09-24T04:40:26.885Z,91.54
2022-09-24T04:42:54.908Z,92.02
2022-09-24T04:45:24.957Z,92.23
2022-09-24T04:47:56.106Z,92.44
2022-09-24T04:50:24.727Z,92.89
2022-09-24T04:52:52.252Z,92.36
2022-09-24T04:55:20.672Z,91.83
2022-09-24T04:57:48.749Z,92.02
2022-09-24T05:00:18.219Z,92.48
2022-09-24T05:02:47.219Z,92.55
2022-09-24T05:05:15.222Z,92.87
2022-09-24T05:07:44.449Z,92.71
2022-09-24T05:10:11.915Z,92.70
2022-09-24T05:12:41.026Z,92.65
2022-09-24T05:15:09.267Z,92.48
2022-09-24T05:17:39.324Z,91.93
2022-09-24T05:20:11.280Z,91.92
2022-09-24T05:22:42.041Z,91.67
2022-09-24T05:25:09.733Z,91.24
2022-09-24T05:27:36.329Z,89.92
2022-09-24T05:30:06.092Z,89.47
2022-09-24T05:32:35.920Z,89.87
2022-09-24T05:35:03.594Z,89.65
2022-09-24T05:37:32.369Z,90.89
2022-09-24T05:40:21.396Z,90.59
2022-09-24T05:42:48.936Z,90.96
2022-09-24T05:45:18.394Z,90.90
2022-09-24T05:47:47.322Z,91.56
2022-09-24T05:50:15.016Z,92.05
2022-09-24T05:52:43.878Z,92.38
2022-09-24T05:55:11.997Z,92.71
2022-09-24T05:57:39.737Z,92.02
2022-09-24T06:00:08.435Z,91.72
2022-09-24T06:02:36.128Z,91.20
2022-09-24T06:05:03.727Z,89.75
2022-09-24T06:07:31.236Z,89.34
2022-09-24T06:10:00.828Z,89.09
2022-09-24T06:12:28.521Z,89.78
2022-09-24T06:14:57.220Z,91.22
2022-09-24T06:17:24.857Z,91.11
2022-09-24T06:19:52.400Z,91.19
2022-09-24T06:22:21.330Z,91.48
2022-09-24T06:24:52.507Z,91.53
2022-09-24T06:27:21.615Z,90.95
2022-09-24T06:29:49.337Z,90.85
2022-09-24T06:32:18.722Z,90.77
2022-09-24T06:34:46.310Z,91.02
2022-09-24T06:37:13.880Z,90.39
2022-09-24T06:39:41.389Z,91.06
2022-09-24T06:42:09.784Z,90.50
2022-09-24T06:44:42.512Z,91.21
2022-09-24T06:47:10.668Z,90.58
2022-09-24T06:49:38.401Z,90.92
2022-09-24T06:52:06.265Z,89.83
2022-09-24T06:54:33.840Z,87.33
2022-09-24T06:57:01.496Z,85.66
2022-09-24T06:59:32.303Z,86.02
2022-09-24T07:02:02.654Z,85.68
2022-09-24T07:04:30.162Z,84.56
2022-09-24T07:07:15.515Z,84.78
2022-09-24T07:09:42.969Z,85.13
2022-09-24T07:12:10.690Z,84.62
2022-09-24T07:14:41.015Z,83.82
2022-09-24T07:17:10.137Z,84.81
2022-09-24T07:19:38.739Z,83.99
2022-09-24T07:22:06.381Z,84.44
2022-09-24T07:24:40.795Z,85.66
2022-09-24T07:27:08.946Z,84.43
2022-09-24T07:29:38.151Z,84.41
2022-09-24T07:32:06.186Z,84.69
2022-09-24T07:34:35.122Z,84.40
2022-09-24T07:37:10.303Z,84.66
2022-09-24T07:39:38.378Z,82.72
2022-09-24T07:42:10.064Z,82.19
2022-09-24T07:44:37.960Z,82.15
2022-09-24T07:47:06.093Z,81.92
2022-09-24T07:49:36.598Z,81.18
2022-09-24T07:52:04.161Z,79.68
2022-09-24T07:54:31.749Z,80.01
2022-09-24T07:57:00.479Z,79.74
2022-09-24T07:59:28.166Z,79.53
2022-09-24T08:01:55.657Z,78.37
2022-09-24T08:04:23.618Z,79.08
2022-09-24T08:06:52.506Z,79.05
2022-09-24T08:09:20.320Z,78.18
2022-09-24T08:11:50.013Z,78.41
2022-09-24T08:14:17.812Z,78.70
2022-09-24T08:16:46.192Z,78.30
2022-09-24T08:19:14.349Z,77.98
2022-09-24T08:21:41.818Z,77.21
2022-09-24T08:24:10.648Z,77.50
2022-09-24T08:26:38.183Z,78.72
2022-09-24T08:29:05.649Z,78.03
2022-09-24T08:31:34.769Z,77.22
2022-09-24T08:34:02.462Z,77.07
2022-09-24T08:36:30.132Z,77.46
2022-09-24T08:38:58.121Z,76.46
2022-09-24T08:41:40.086Z,76.83
2022-09-24T08:44:12.214Z,76.76
2022-09-24T08:47:00.687Z,76.64
2022-09-24T08:49:30.886Z,76.14
2022-09-24T08:52:04.962Z,76.26
2022-09-24T08:54:34.848Z,75.55
2022-09-24T08:57:06.792Z,74.69
2022-09-24T08:59:37.608Z,74.80
2022-09-24T09:02:26.726Z,74.93
2022-09-24T09:05:02.136Z,75.24
2022-09-24T09:07:32.721Z,75.31
2022-09-24T09:10:02.229Z,75.28
2022-09-24T09:12:35.782Z,76.44
2022-09-24T09:15:11.542Z,76.52
2022-09-24T09:18:00.750Z,76.15
2022-09-24T09:20:31.547Z,75.46
2022-09-24T09:23:03.744Z,74.57
2022-09-24T09:25:35.962Z,74.71
2022-09-24T09:28:14.323Z,75.31
2022-09-24T09:30:55.562Z,75.46
2022-09-24T09:33:32.399Z,74.39
2022-09-24T09:36:06.986Z,72.73
2022-09-24T09:38:38.457Z,73.42
2022-09-24T09:41:12.986Z,73.67
2022-09-24T09:43:42.629Z,73.53
2022-09-24T09:46:16.844Z,73.02
2022-09-24T09:48:59.918Z,73.44
2022-09-24T09:51:28.005Z,72.36
2022-09-24T09:53:56.798Z,71.31
2022-09-24T09:56:27.420Z,70.68
2022-09-24T09:59:07.209Z,71.57
2022-09-24T10:01:37.060Z,69.11
2022-09-24T10:04:06.057Z,69.27
2022-09-24T10:06:35.705Z,69.35
2022-09-24T10:09:20.122Z,68.32
2022-09-24T10:11:48.350Z,68.42
2022-09-24T10:14:24.159Z,68.46
2022-09-24T10:17:02.593Z,68.53
2022-09-24T10:19:30.428Z,68.23
2022-09-24T10:22:29.368Z,67.30
2022-09-24T10:24:58.314Z,66.42
2022-09-24T10:27:32.040Z,68.28
2022-09-24T10:30:19.286Z,65.25
2022-09-24T10:32:48.863Z,65.46
2022-09-24T10:35:28.796Z,64.62
2022-09-24T10:38:17.241Z,65.40
2022-09-24T10:40:44.910Z,66.47
2022-09-24T10:43:18.088Z,66.25
2022-09-24T10:46:01.311Z,66.36
2022-09-24T10:48:33.587Z,66.33
2022-09-24T10:51:07.559Z,64.52
2022-09-24T10:53:43.147Z,66.34
2022-09-24T10:56:20.256Z,62.08
2022-09-24T10:59:04.884Z,62.93
2022-09-24T11:01:43.208Z,63.91
2022-09-24T11:04:24.043Z,64.59
2022-09-24T11:07:06.250Z,62.93
2022-09-24T11:09:40.562Z,61.52
2022-09-24T11:12:14.157Z,61.76
2022-09-24T11:14:54.626Z,60.11
2022-09-24T11:17:32.349Z,60.24
2022-09-24T11:20:35.284Z,62.21
2022-09-24T11:23:15.629Z,60.84
2022-09-24T11:25:49.820Z,60.55
2022-09-24T11:28:28.388Z,58.42
2022-09-24T11:31:00.803Z,59.75
2022-09-24T11:33:42.213Z,59.35
2022-09-24T11:36:18.447Z,59.09
2022-09-24T11:38:59.869Z,60.25
2022-09-24T11:41:36.729Z,57.50
2022-09-24T11:44:16.793Z,55.56
2022-09-24T11:46:51.977Z,55.90
2022-09-24T11:49:31.288Z,53.73
2022-09-24T11:52:01.722Z,57.63
2022-09-24T11:54:34.623Z,59.01
2022-09-24T11:57:05.155Z,59.75
2022-09-24T11:59:37.715Z,60.17
2022-09-24T12:02:11.651Z,56.45
2022-09-24T12:04:50.836Z,56.30
2022-09-24T12:07:23.484Z,55.90
2022-09-24T12:09:53.964Z,54.95
2022-09-24T12:12:25.008Z,54.46
2022-09-24T12:14:55.624Z,57.84
2022-09-24T12:17:26.481Z,56.23
2022-09-24T12:20:00.206Z,54.50
2022-09-24T12:22:28.893Z,56.33
2022-09-24T12:24:59.283Z,56.57
2022-09-24T12:27:31.099Z,55.74
2022-09-24T12:30:19.188Z,55.60
2022-09-24T12:32:57.037Z,54.48
2022-09-24T12:35:35.257Z,55.20
2022-09-24T12:38:05.983Z,53.63
2022-09-24T12:40:46.857Z,52.10
2022-09-24T12:43:19.301Z,51.94
2022-09-24T12:45:47.668Z,53.55
2022-09-24T12:48:16.708Z,51.69
2022-09-24T12:50:56.881Z,52.69
2022-09-24T12:53:27.913Z,53.57
2022-09-24T12:55:59.714Z,52.52
2022-09-24T12:58:30.421Z,53.84
2022-09-24T13:01:09.908Z,51.73
2022-09-24T13:03:44.562Z,49.64
2022-09-24T13:06:33.305Z,52.60
2022-09-24T13:09:00.900Z,52.68
2022-09-24T13:11:31.158Z,52.93
2022-09-24T13:14:02.422Z,53.15
2022-09-24T13:16:30.533Z,52.59
2022-09-24T13:19:00.236Z,53.26
2022-09-24T13:21:30.177Z,52.22
2022-09-24T13:23:57.986Z,47.88
2022-09-24T13:26:31.009Z,50.37
2022-09-24T13:29:00.765Z,50.47
2022-09-24T13:31:36.469Z,52.27
2022-09-24T13:34:14.122Z,48.92
2022-09-24T13:36:51.633Z,52.16
2022-09-24T13:39:26.713Z,49.91
2022-09-24T13:42:02.981Z,51.31
2022-09-24T13:44:33.987Z,50.39
2022-09-24T13:47:06.398Z,52.81
2022-09-24T13:49:35.085Z,52.00
2022-09-24T13:52:17.758Z,50.31
2022-09-24T13:54:50.482Z,52.07
2022-09-24T13:57:22.490Z,52.95
2022-09-24T13:59:50.149Z,53.41
2022-09-24T14:02:24.478Z,51.41
2022-09-24T14:04:55.960Z,51.40
2022-09-24T14:07:25.155Z,52.46
2022-09-24T14:10:03.062Z,53.37
2022-09-24T14:12:30.608Z,53.15
2022-09-24T14:14:58.709Z,52.59
2022-09-24T14:17:29.137Z,53.93
2022-09-24T14:20:00.155Z,53.06
2022-09-24T14:22:53.319Z,53.06
2022-09-24T14:25:26.706Z,52.15
2022-09-24T14:27:54.446Z,53.97
2022-09-24T14:30:23.556Z,54.30
2022-09-24T14:32:52.962Z,53.83
2022-09-24T14:35:26.563Z,56.47
2022-09-24T14:38:00.554Z,55.74
2022-09-24T14:40:29.304Z,55.69
2022-09-24T14:42:59.115Z,55.70
2022-09-24T14:45:29.104Z,56.56
2022-09-24T14:48:03.362Z,56.50
2022-09-24T14:50:35.718Z,56.43
2022-09-24T14:53:13.485Z,57.64
2022-09-24T14:55:43.350Z,55.83
2022-09-24T14:58:24.388Z,57.51
2022-09-24T15:00:55.111Z,56.30
2022-09-24T15:03:28.286Z,56.76
2022-09-24T15:06:04.613Z,57.43
2022-09-24T15:08:33.599Z,58.35
2022-09-24T15:11:03.791Z,58.51
2022-09-24T15:13:33.123Z,58.74
2022-09-24T15:16:06.827Z,57.27
2022-09-24T15:18:35.643Z,57.43
2022-09-24T15:21:08.131Z,58.28
2022-09-24T15:23:37.247Z,58.30
2022-09-24T15:26:05.118Z,59.25
2022-09-24T15:28:32.862Z,60.26
2022-09-24T15:31:00.677Z,59.67
2022-09-24T15:33:28.357Z,57.74
2022-09-24T15:35:56.086Z,58.81
2022-09-24T15:38:23.680Z,59.07
2022-09-24T15:40:53.785Z,58.17
2022-09-24T15:43:22.576Z,60.83
2022-09-24T15:45:50.352Z,59.33
2022-09-24T15:48:18.161Z,59.39
2022-09-24T15:50:47.164Z,59.52
2022-09-24T15:53:19.376Z,60.63
2022-09-24T15:55:49.531Z,61.15
2022-09-24T15:58:19.689Z,61.56
2022-09-24T16:00:47.500Z,61.45
2022-09-24T16:03:19.535Z,62.20
2022-09-24T16:05:47.975Z,62.20
2022-09-24T16:08:16.269Z,62.72
2022-09-24T16:10:44.556Z,62.71
2022-09-24T16:13:13.325Z,63.35
2022-09-24T16:15:42.435Z,63.41
2022-09-24T16:18:13.499Z,64.11
2022-09-24T16:20:41.752Z,64.08
2022-09-24T16:23:14.263Z,64.71
2022-09-24T16:25:43.574Z,64.83
2022-09-24T16:28:11.220Z,64.99
2022-09-24T16:30:39.293Z,65.04
2022-09-24T16:33:08.345Z,64.87
2022-09-24T16:35:36.105Z,64.55
2022-09-24T16:38:03.790Z,65.05
2022-09-24T16:40:32.858Z,65.21
2022-09-24T16:43:00.687Z,65.95
2022-09-24T16:45:28.427Z,66.18
2022-09-24T16:47:56.027Z,66.63
2022-09-24T16:50:24.868Z,67.03
2022-09-24T16:52:54.849Z,68.39
2022-09-24T16:55:24.085Z,68.04
2022-09-24T16:57:52.254Z,68.08
2022-09-24T17:00:20.509Z,68.35
2022-09-24T17:02:48.228Z,68.61
2022-09-24T17:05:15.810Z,68.83
2022-09-24T17:07:44.589Z,68.74
2022-09-24T17:10:15.322Z,68.76
2022-09-24T17:12:44.066Z,69.03
2022-09-24T17:15:14.067Z,69.20
2022-09-24T17:17:48.550Z,69.90
2022-09-24T17:20:18.034Z,70.02
2022-09-24T17:22:48.145Z,70.30
2022-09-24T17:25:15.951Z,70.40
2022-09-24T17:27:44.842Z,70.61
2022-09-24T17:30:13.131Z,70.34
2022-09-24T17:32:40.642Z,71.56
2022-09-24T17:35:08.880Z,71.78
2022-09-24T17:37:36.538Z,71.40
2022-09-24T17:40:06.381Z,71.45
2022-09-24T17:42:34.994Z,71.70
2022-09-24T17:45:02.427Z,72.11
2022-09-24T17:47:50.001Z,71.83
2022-09-24T17:50:17.659Z,72.08
2022-09-24T17:52:45.135Z,73.11
2022-09-24T17:55:14.094Z,73.64
2022-09-24T17:57:41.769Z,74.37
2022-09-24T18:00:10.951Z,74.79
2022-09-24T18:02:38.585Z,75.46
2022-09-24T18:05:07.379Z,76.17
2022-09-24T18:07:35.075Z,75.47
2022-09-24T18:10:02.636Z,75.26
2022-09-24T18:12:31.675Z,76.54
2022-09-24T18:14:59.409Z,76.52
2022-09-24T18:17:27.059Z,75.48
2022-09-24T18:19:54.550Z,74.54
2022-09-24T18:22:22.132Z,72.32
2022-09-24T18:24:49.683Z,71.61
2022-09-24T18:27:17.387Z,72.74
2022-09-24T18:29:46.398Z,71.56
2022-09-24T18:32:15.868Z,71.72
2022-09-24T18:34:43.425Z,72.99
2022-09-24T18:37:10.898Z,74.40
2022-09-24T18:39:40.185Z,75.51
2022-09-24T18:42:07.726Z,76.18
2022-09-24T18:44:35.323Z,77.59
2022-09-24T18:47:04.331Z,79.57
2022-09-24T18:49:32.175Z,79.93
2022-09-24T18:51:59.773Z,81.43
2022-09-24T18:54:27.417Z,81.93
2022-09-24T18:56:54.978Z,80.71
2022-09-24T18:59:23.734Z,82.02
2022-09-24T19:01:51.898Z,82.42
2022-09-24T19:04:26.136Z,83.35
2022-09-24T19:06:57.442Z,83.56
2022-09-24T19:09:25.053Z,83.66
2022-09-24T19:11:52.629Z,84.04
2022-09-24T19:14:20.317Z,85.39
2022-09-24T19:16:48.324Z,85.93
2022-09-24T19:19:16.710Z,84.56
2022-09-24T19:21:45.860Z,84.33
2022-09-24T19:24:13.638Z,83.57
2022-09-24T19:26:42.889Z,83.23
2022-09-24T19:29:15.521Z,83.61
2022-09-24T19:31:45.505Z,83.19
2022-09-24T19:34:14.407Z,83.38
2022-09-24T19:36:44.131Z,81.63
2022-09-24T19:39:15.183Z,81.31
2022-09-24T19:41:43.171Z,81.02
2022-09-24T19:44:11.435Z,82.41
2022-09-24T19:46:40.493Z,82.51
2022-09-24T19:49:08.266Z,82.59
2022-09-24T19:51:38.800Z,83.99
2022-09-24T19:54:08.743Z,83.93
2022-09-24T19:56:42.240Z,84.21
2022-09-24T19:59:11.620Z,84.44
2022-09-24T20:01:45.266Z,84.16
2022-09-24T20:04:34.269Z,84.29
2022-09-24T20:07:05.794Z,85.27
2022-09-24T20:09:59.867Z,85.64
2022-09-24T20:12:41.349Z,86.60
2022-09-24T20:15:10.036Z,87.35
2022-09-24T20:17:38.577Z,88.22
2022-09-24T20:20:07.063Z,88.66
2022-09-24T20:22:34.725Z,89.03
2022-09-24T20:25:02.261Z,89.58
2022-09-24T20:27:48.828Z,89.63
2022-09-24T20:30:18.141Z,87.63
2022-09-24T20:32:45.793Z,87.20
2022-09-24T20:35:17.236Z,86.33
2022-09-24T20:37:45.009Z,87.92
2022-09-24T20:40:22.575Z,89.43
2022-09-24T20:42:51.657Z,90.53
2022-09-24T20:45:19.199Z,90.84
2022-09-24T20:47:49.955Z,91.66
2022-09-24T20:50:18.673Z,91.60
2022-09-24T20:52:46.927Z,90.59
2022-09-24T20:55:15.576Z,89.05
2022-09-24T20:57:43.779Z,89.26
2022-09-24T21:00:14.919Z,87.92
2022-09-24T21:02:44.387Z,88.64
2022-09-24T21:05:12.411Z,89.45
2022-09-24T21:07:40.652Z,88.99
2022-09-24T21:10:10.957Z,86.99
2022-09-24T21:12:39.656Z,86.59
2022-09-24T21:15:09.051Z,86.18
2022-09-24T21:17:37.940Z,85.66
2022-09-24T21:20:06.277Z,85.39
2022-09-24T21:22:34.367Z,85.01
2022-09-24T21:25:01.972Z,86.76
2022-09-24T21:27:30.087Z,90.52
2022-09-24T21:29:57.670Z,91.33
2022-09-24T21:32:25.352Z,92.41
2022-09-24T21:34:54.267Z,92.10
2022-09-24T21:37:22.315Z,92.81
2022-09-24T21:39:50.114Z,93.49
2022-09-24T21:42:19.802Z,93.10
2022-09-24T21:44:47.448Z,92.77
2022-09-24T21:47:14.961Z,92.33
2022-09-24T21:49:42.598Z,92.27
2022-09-24T21:52:11.470Z,93.37
2022-09-24T21:54:39.608Z,94.17
2022-09-24T21:57:07.295Z,94.15
2022-09-24T21:59:52.426Z,93.96
2022-09-24T22:02:20.214Z,93.84
2022-09-24T22:04:48.386Z,93.75
2022-09-24T22:07:17.377Z,93.83
2022-09-24T22:09:45.028Z,93.61
2022-09-24T22:12:13.329Z,93.42
2022-09-24T22:14:40.998Z,94.01
2022-09-24T22:17:08.543Z,93.81
2022-09-24T22:19:36.201Z,93.60
2022-09-24T22:22:03.902Z,93.74
2022-09-24T22:24:32.823Z,92.59
2022-09-24T22:27:00.476Z,92.35
2022-09-24T22:29:28.039Z,92.70
2022-09-24T22:31:55.712Z,91.99
2022-09-24T22:34:40.917Z,91.85
2022-09-24T22:37:08.474Z,91.53
2022-09-24T22:39:37.356Z,91.40
2022-09-24T22:42:05.599Z,90.27
2022-09-24T22:44:33.139Z,90.61
2022-09-24T22:47:00.689Z,90.33
2022-09-24T22:49:28.265Z,90.34
2022-09-24T22:51:55.841Z,90.14
2022-09-24T22:54:24.286Z,89.99
2022-09-24T22:56:53.196Z,89.72
2022-09-24T22:59:50.955Z,89.37
2022-09-24T23:02:18.501Z,89.30
2022-09-24T23:05:00.438Z,89.04
2022-09-24T23:07:28.174Z,88.66
2022-09-24T23:09:55.721Z,88.67
2022-09-24T23:12:24.714Z,89.81
2022-09-24T23:14:52.455Z,90.40
2022-09-24T23:17:20.252Z,90.20
2022-09-24T23:19:51.931Z,90.33
2022-09-24T23:22:21.391Z,90.05
2022-09-24T23:24:50.422Z,90.23
2022-09-24T23:27:18.904Z,90.70
2022-09-24T23:29:47.982Z,91.46
2022-09-24T23:32:16.162Z,92.20
2022-09-24T23:34:43.992Z,92.49
2022-09-24T23:37:11.839Z,92.36
2022-09-24T23:39:39.505Z,90.92
2022-09-24T23:42:07.193Z,90.93
2022-09-24T23:44:35.093Z,90.65
2022-09-24T23:47:03.943Z,90.74
2022-09-24T23:49:31.488Z,91.34
2022-09-24T23:51:59.311Z,92.05
2022-09-24T23:54:28.141Z,92.56
2022-09-24T23:56:56.032Z,92.37
2022-09-24T23:59:23.676Z,91.95
